Time;durP1;ratioP1;P1;durP2;ratioP2;P2;SDS_P1;SDS_P2;PMS_P1;PMS_P2;Temp;Humidity;BMP_temperature;BMP_pressure;BME280_temperature;BME280_humidity;BME280_pressure;Samples;Min_cycle;Max_cycle;Signal;HPM_P1;HPM_P2
2021/12/24 00:01:51;;;;;;;116.42;52.20;;;;;;;-2.70;61.29;93676.83;1687580;85;21215;-51
2021/12/24 00:04:18;;;;;;;132.78;57.40;;;;;;;-2.67;61.27;93669.91;1661969;85;21007;-50
2021/12/24 00:06:46;;;;;;;107.78;48.83;;;;;;;-2.66;61.46;93656.05;1687550;85;21018;-50
2021/12/24 00:09:21;;;;;;;91.57;44.67;;;;;;;-2.68;61.32;93652.98;1687656;84;21030;-51
2021/12/24 00:11:43;;;;;;;73.28;35.35;;;;;;;-2.76;61.29;93634.56;1661868;85;21113;-50
2021/12/24 00:14:10;;;;;;;78.57;37.42;;;;;;;-2.77;61.08;93638.41;1640196;85;21824;-50
2021/12/24 00:16:45;;;;;;;94.42;44.73;;;;;;;-2.81;61.00;93623.65;1687566;85;21010;-52
2021/12/24 00:35:40;;;;;;;102.20;47.38;;;;;;;-2.42;60.36;93589.80;1659394;85;20966;-54
2021/12/24 00:38:10;;;;;;;86.92;41.92;;;;;;;-2.38;60.25;93587.29;1668435;86;20978;-51
2021/12/24 00:40:43;;;;;;;91.35;42.78;;;;;;;-2.40;60.16;93588.27;1720068;83;21157;-51
2021/12/24 00:43:14;;;;;;;94.17;41.88;;;;;;;-2.40;60.19;93584.80;1719981;83;20934;-52
2021/12/24 00:45:43;;;;;;;61.83;31.12;;;;;;;-2.44;60.49;93588.88;1719944;83;21406;-52
2021/12/24 00:48:16;;;;;;;21.95;15.13;;;;;;;-2.40;61.08;93581.53;1719980;82;20997;-52
2021/12/24 00:56:11;;;;;;;14.13;11.85;;;;;;;-1.89;64.74;93558.67;1719835;83;21038;-52
2021/12/24 00:58:40;;;;;;;10.85;9.68;;;;;;;-1.67;64.53;93543.84;1719879;83;20917;-51
2021/12/24 01:01:10;;;;;;;12.85;9.33;;;;;;;-1.53;64.19;93545.07;1719932;83;21041;-50
2021/12/24 01:03:40;;;;;;;22.17;13.25;;;;;;;-1.45;64.19;93543.82;1719911;83;20977;-52
2021/12/24 01:06:09;;;;;;;37.58;25.48;;;;;;;-1.34;64.29;93543.14;1719869;83;21154;-51
2021/12/24 01:08:35;;;;;;;19.75;14.10;;;;;;;-1.22;64.26;93539.34;1719910;83;21006;-51
2021/12/24 01:11:05;;;;;;;32.08;28.70;;;;;;;-1.07;64.02;93542.64;1719829;83;20954;-52
2021/12/24 01:13:34;;;;;;;16.42;11.73;;;;;;;-1.00;63.95;93546.63;1719998;83;20970;-50
2021/12/24 01:16:11;;;;;;;18.55;13.53;;;;;;;-0.92;63.87;93546.71;1691813;83;21477;-50
2021/12/24 01:18:45;;;;;;;14.80;10.68;;;;;;;-0.90;63.72;93547.85;1718696;83;21182;-50
2021/12/24 01:23:57;;;;;;;11.50;8.88;;;;;;;-0.92;63.65;93531.88;1719857;83;20956;-51
2021/12/24 01:26:33;;;;;;;10.28;8.50;;;;;;;-0.89;63.82;93530.48;1719450;83;20961;-50
2021/12/24 01:29:21;;;;;;;16.02;10.60;;;;;;;-0.84;63.77;93536.78;1717612;83;20997;-51
2021/12/24 01:45:04;;;;;;;14.50;9.35;;;;;;;-0.70;65.22;93507.48;1744639;82;21248;-51
2021/12/24 01:47:30;;;;;;;14.15;10.28;;;;;;;-0.79;65.98;93496.44;1743305;82;20946;-50
2021/12/24 01:49:58;;;;;;;11.93;9.45;;;;;;;-0.87;66.48;93480.91;1723735;82;21014;-51
2021/12/24 01:52:25;;;;;;;10.93;9.13;;;;;;;-0.87;67.05;93461.24;1744500;82;20993;-51
2021/12/24 01:54:55;;;;;;;11.85;8.73;;;;;;;-0.86;67.36;93466.82;1744648;82;20998;-50
2021/12/24 01:57:21;;;;;;;14.65;9.40;;;;;;;-0.86;67.71;93450.62;1744792;82;21406;-50
2021/12/24 01:59:48;;;;;;;14.50;10.30;;;;;;;-0.88;67.92;93444.30;1744672;82;21002;-50
2021/12/24 02:02:17;;;;;;;17.42;11.22;;;;;;;-0.82;68.05;93433.22;1723249;82;21006;-50
2021/12/24 02:04:43;;;;;;;15.55;10.98;;;;;;;-0.73;68.00;93438.11;1744996;82;21427;-51
2021/12/24 02:07:10;;;;;;;15.03;10.43;;;;;;;-0.60;68.26;93428.29;1723320;82;20994;-52
2021/12/24 02:09:38;;;;;;;18.82;12.43;;;;;;;-0.45;68.01;93417.45;1744847;82;21106;-50
2021/12/24 02:12:09;;;;;;;20.68;13.78;;;;;;;-0.46;67.84;93415.90;1723889;82;20998;-50
2021/12/24 02:14:38;;;;;;;33.58;19.00;;;;;;;-0.44;68.08;93396.02;1744791;82;21050;-50
2021/12/24 02:17:28;;;;;;;28.30;16.52;;;;;;;-0.41;68.02;93389.80;1744753;82;21010;-51
2021/12/24 02:30:44;;;;;;;63.20;29.07;;;;;;;-0.27;68.33;93353.07;1744540;82;20935;-51
2021/12/24 02:33:13;;;;;;;35.43;22.30;;;;;;;-0.26;68.26;93356.72;1723785;82;20990;-50
2021/12/24 02:35:40;;;;;;;92.82;42.13;;;;;;;-0.25;67.93;93351.49;1749004;82;21148;-50
2021/12/24 02:38:07;;;;;;;46.23;26.17;;;;;;;-0.30;68.06;93349.84;1752782;81;21042;-51
2021/12/24 02:40:37;;;;;;;47.80;27.82;;;;;;;-0.26;67.94;93351.92;1725283;82;21084;-51
2021/12/24 02:43:11;;;;;;;55.70;31.87;;;;;;;-0.34;67.89;93345.88;1752939;82;21452;-49
2021/12/24 02:45:35;;;;;;;27.48;18.50;;;;;;;-0.39;68.29;93337.48;1752346;82;21014;-51
2021/12/24 02:56:09;;;;;;;29.60;18.02;;;;;;;-0.63;68.69;93315.11;1729723;82;21477;-50
2021/12/24 02:58:45;;;;;;;20.97;14.43;;;;;;;-0.59;68.66;93316.41;1752902;82;21049;-52
2021/12/24 03:01:15;;;;;;;18.57;13.98;;;;;;;-0.58;68.26;93301.13;1752445;80;21188;-50
2021/12/24 03:03:48;;;;;;;51.23;27.70;;;;;;;-0.63;68.22;93292.77;1752665;81;20959;-51
2021/12/24 03:06:12;;;;;;;40.63;22.50;;;;;;;-0.65;67.82;93296.44;1752314;82;20942;-50
2021/12/24 03:08:40;;;;;;;25.23;16.35;;;;;;;-0.64;67.58;93290.64;1725449;82;21021;-51
2021/12/24 03:11:06;;;;;;;33.33;20.00;;;;;;;-0.59;67.24;93286.71;1752839;82;21053;-51
2021/12/24 03:13:36;;;;;;;23.12;15.10;;;;;;;-0.58;67.17;93289.59;1752775;81;20997;-51
2021/12/24 03:16:05;;;;;;;15.40;10.80;;;;;;;-0.56;66.56;93282.58;1701604;81;20926;-51
2021/12/24 03:18:34;;;;;;;13.72;9.23;;;;;;;-0.51;66.11;93267.27;1752614;81;20982;-52
2021/12/24 03:21:17;;;;;;;13.58;10.60;;;;;;;-0.48;65.40;93258.34;1725962;81;21010;-51
2021/12/24 03:23:42;;;;;;;21.05;14.68;;;;;;;-0.42;65.36;93264.78;1750823;82;21055;-51
2021/12/24 03:26:06;;;;;;;28.23;20.35;;;;;;;-0.32;65.05;93271.16;1751292;82;21746;-51
2021/12/24 03:28:33;;;;;;;18.75;13.30;;;;;;;-0.22;64.86;93259.41;1752799;81;21402;-49
2021/12/24 03:31:00;;;;;;;29.87;21.93;;;;;;;-0.11;64.40;93258.03;1752801;82;21050;-51
2021/12/24 03:33:27;;;;;;;23.38;18.00;;;;;;;0.02;63.72;93261.03;1752703;82;21013;-50
2021/12/24 03:35:54;;;;;;;29.55;22.42;;;;;;;0.12;63.29;93245.20;1724488;82;21112;-50
2021/12/24 03:38:21;;;;;;;48.73;35.80;;;;;;;0.28;62.90;93245.84;1752427;82;21150;-51
2021/12/24 03:40:48;;;;;;;51.77;37.70;;;;;;;0.39;62.51;93241.72;1752476;82;21548;-49
2021/12/24 03:43:15;;;;;;;34.27;27.32;;;;;;;0.50;62.33;93242.27;1752562;82;21057;-51
2021/12/24 03:45:59;;;;;;;23.05;17.95;;;;;;;0.63;61.77;93242.36;1752611;82;21414;-50
2021/12/24 03:48:23;;;;;;;27.93;20.50;;;;;;;0.70;61.33;93234.08;1714013;83;25058;-50
2021/12/24 03:51:23;;;;;;;20.72;15.55;;;;;;;0.67;61.07;93231.64;1751903;82;21150;-51
2021/12/24 03:56:04;;;;;;;21.42;18.52;;;;;;;0.73;61.40;93211.58;1752618;82;21457;-50
2021/12/24 03:58:32;;;;;;;20.00;17.62;;;;;;;0.72;61.70;93212.77;1752419;82;21002;-51
2021/12/24 04:01:05;;;;;;;18.20;16.27;;;;;;;0.79;61.22;93213.37;1748151;80;21471;-51
2021/12/24 04:03:35;;;;;;;17.52;15.70;;;;;;;0.84;61.19;93199.93;1752386;82;21234;-50
2021/12/24 04:06:19;;;;;;;14.70;12.30;;;;;;;0.93;60.65;93215.75;1748000;82;20955;-50
2021/12/24 04:09:05;;;;;;;13.18;11.43;;;;;;;1.03;59.86;93203.14;1707235;82;21049;-51
2021/12/24 04:11:38;;;;;;;15.32;13.72;;;;;;;1.08;59.56;93199.91;1752309;82;21025;-50
2021/12/24 04:14:05;;;;;;;14.18;12.68;;;;;;;1.07;59.41;93199.16;1752412;82;21516;-49
2021/12/24 04:16:33;;;;;;;19.55;15.53;;;;;;;1.09;59.61;93204.91;1752407;82;21097;-50
2021/12/24 04:19:23;;;;;;;16.82;14.53;;;;;;;1.11;59.75;93194.42;1752709;82;20954;-51
2021/12/24 04:27:12;;;;;;;11.90;10.25;;;;;;;1.20;59.37;93190.53;1752463;82;21569;-50
2021/12/24 04:29:43;;;;;;;15.78;12.18;;;;;;;1.09;59.54;93176.48;1723164;82;21390;-50
2021/12/24 04:32:19;;;;;;;23.42;15.72;;;;;;;1.05;59.87;93174.47;1752595;82;20980;-51
2021/12/24 04:34:50;;;;;;;27.85;18.85;;;;;;;1.07;60.23;93169.39;1750442;82;21037;-51
2021/12/24 04:51:23;;;;;;;21.93;18.80;;;;;;;1.36;60.83;93150.45;1744688;82;21530;-50
2021/12/24 05:02:32;;;;;;;69.70;37.70;;;;;;;1.39;61.36;93111.09;1743821;82;20959;-51
2021/12/24 05:04:50;;;;;;;64.70;33.80;;;;;;;1.34;61.64;93098.66;1741771;82;20966;-51
2021/12/24 05:10:00;;;;;;;77.75;43.08;;;;;;;1.40;61.25;93101.00;1744537;82;21157;-52
2021/12/24 05:12:29;;;;;;;122.35;61.53;;;;;;;1.41;61.08;93091.11;1723377;82;21062;-53
2021/12/24 05:14:58;;;;;;;78.90;47.00;;;;;;;1.36;61.06;93092.22;1744585;82;20982;-50
2021/12/24 05:18:04;;;;;;;96.82;53.08;;;;;;;1.35;61.09;93092.80;1744561;82;20999;-50
2021/12/24 05:23:12;;;;;;;66.95;38.00;;;;;;;1.44;61.14;93086.19;1743607;82;21451;-50
2021/12/24 05:25:44;;;;;;;90.80;47.73;;;;;;;1.47;61.24;93087.28;1744687;82;21410;-50
2021/12/24 05:28:13;;;;;;;81.60;47.17;;;;;;;1.53;61.04;93079.53;1744373;82;20967;-51
2021/12/24 05:30:42;;;;;;;77.03;44.18;;;;;;;1.54;61.24;93076.98;1744660;82;20955;-49
2021/12/24 05:33:13;;;;;;;79.55;49.30;;;;;;;1.51;61.58;93069.72;1744755;82;21537;-50
2021/12/24 05:35:40;;;;;;;73.28;42.90;;;;;;;1.52;61.54;93065.08;1745143;82;21849;-49
2021/12/24 05:38:12;;;;;;;76.10;41.63;;;;;;;1.58;61.46;93059.28;1724084;82;21434;-51
2021/12/24 05:40:39;;;;;;;67.08;37.73;;;;;;;1.67;61.14;93064.23;1752597;82;21449;-54
2021/12/24 05:43:07;;;;;;;143.70;74.60;;;;;;;1.70;61.13;93062.61;1752582;82;20990;-54
2021/12/24 05:45:34;;;;;;;90.40;51.95;;;;;;;1.75;60.95;93067.66;1723158;82;20994;-50
2021/12/24 05:48:18;;;;;;;76.67;44.75;;;;;;;1.80;60.80;93065.01;1752597;82;21170;-50
2021/12/24 05:50:47;;;;;;;60.60;38.98;;;;;;;1.78;60.95;93054.59;1752588;82;21046;-49
2021/12/24 05:53:29;;;;;;;91.65;52.83;;;;;;;1.81;60.92;93058.39;1716743;83;21025;-52
2021/12/24 05:55:58;;;;;;;31.07;20.17;;;;;;;1.73;61.25;93058.42;1750308;82;20993;-53
2021/12/24 05:58:25;;;;;;;43.05;28.83;;;;;;;1.69;61.03;93052.36;1752480;82;21044;-53
2021/12/24 06:00:55;;;;;;;22.58;15.93;;;;;;;1.60;61.38;93054.19;1722959;82;21351;-52
2021/12/24 06:03:23;;;;;;;16.45;12.07;;;;;;;1.57;61.65;93044.98;1735772;81;21010;-53
2021/12/24 06:05:53;;;;;;;8.50;7.70;;;;;;;1.57;61.63;93058.53;1692642;81;21093;-52
2021/12/24 06:08:19;;;;;;;17.37;9.65;;;;;;;1.58;61.04;93053.28;1729457;82;21016;-55
2021/12/24 06:10:48;;;;;;;13.50;11.12;;;;;;;1.64;61.27;93032.58;1707978;82;21010;-53
2021/12/24 06:13:18;;;;;;;11.10;8.20;;;;;;;1.68;61.39;93035.93;1734971;82;21003;-54
2021/12/24 06:15:46;;;;;;;10.65;9.28;;;;;;;1.73;61.13;93029.97;1734851;82;21017;-51
2021/12/24 06:20:47;;;;;;;9.55;8.55;;;;;;;1.82;61.23;93017.31;1735170;82;21011;-53
2021/12/24 06:23:14;;;;;;;17.95;12.45;;;;;;;1.81;61.28;93018.48;1734999;82;21116;-53
2021/12/24 06:25:48;;;;;;;26.40;18.77;;;;;;;1.82;61.42;93020.61;1734767;82;21507;-53
2021/12/24 06:28:15;;;;;;;28.20;18.80;;;;;;;1.89;61.51;93016.31;1698176;83;21015;-53
2021/12/24 06:30:42;;;;;;;14.35;11.08;;;;;;;1.98;61.29;93031.35;1721000;83;20989;-54
2021/12/24 06:33:10;;;;;;;9.63;8.53;;;;;;;2.02;61.12;93033.35;1720771;83;21530;-56
2021/12/24 06:35:37;;;;;;;11.95;9.70;;;;;;;2.02;60.99;93017.85;1720094;83;21039;-54
2021/12/24 06:38:04;;;;;;;18.27;10.95;;;;;;;2.03;61.09;93026.73;1722721;83;21830;-54
2021/12/24 06:40:31;;;;;;;17.55;9.98;;;;;;;2.05;61.13;93006.72;1723008;83;21099;-55
2021/12/24 06:42:59;;;;;;;17.00;11.30;;;;;;;2.03;61.24;93001.75;1694875;83;20956;-56
2021/12/24 06:45:30;;;;;;;39.15;21.93;;;;;;;2.08;61.36;93000.42;1723074;83;21055;-54
2021/12/24 06:47:57;;;;;;;35.15;22.85;;;;;;;2.11;61.51;93021.27;1713582;81;21517;-54
2021/12/24 06:50:24;;;;;;;48.20;28.95;;;;;;;2.22;61.73;93016.25;1721016;81;21132;-52
2021/12/24 06:52:53;;;;;;;29.27;20.08;;;;;;;2.32;61.73;93008.38;1737861;81;21088;-54
2021/12/24 06:55:21;;;;;;;20.50;13.85;;;;;;;2.39;61.54;93008.14;1731506;81;21057;-52
2021/12/24 06:57:49;;;;;;;25.52;18.00;;;;;;;2.46;61.11;93024.17;1740940;81;21247;-50
2021/12/24 07:00:20;;;;;;;32.58;20.57;;;;;;;2.47;61.39;93023.75;1732426;81;21097;-54
2021/12/24 07:02:46;;;;;;;35.20;21.62;;;;;;;2.50;61.58;93022.13;1741448;81;21171;-54
2021/12/24 07:05:15;;;;;;;29.45;17.90;;;;;;;2.55;61.13;93010.72;1740607;81;21456;-57
2021/12/24 07:07:42;;;;;;;33.92;20.80;;;;;;;2.61;60.56;93021.16;1711482;81;21126;-52
2021/12/24 07:10:09;;;;;;;17.45;12.10;;;;;;;2.68;60.30;93018.97;1741513;81;21037;-53
2021/12/24 07:12:35;;;;;;;17.10;12.63;;;;;;;2.77;60.12;93021.02;1744736;81;21008;-54
2021/12/24 07:15:05;;;;;;;16.97;13.20;;;;;;;2.84;59.54;93018.08;1736862;81;21992;-53
2021/12/24 07:17:34;;;;;;;14.20;11.05;;;;;;;2.93;59.35;93022.21;1740771;81;21077;-54
2021/12/24 07:20:01;;;;;;;12.25;10.32;;;;;;;2.98;58.69;93027.84;1733038;81;21104;-55
2021/12/24 07:22:28;;;;;;;25.45;16.60;;;;;;;2.98;58.61;93016.98;1747402;81;20997;-54
2021/12/24 07:24:55;;;;;;;12.82;10.95;;;;;;;3.00;58.71;93021.95;1747728;81;21580;-54
2021/12/24 07:27:24;;;;;;;16.40;13.43;;;;;;;3.08;58.72;93011.02;1741636;81;21752;-53
2021/12/24 07:29:51;;;;;;;16.67;12.98;;;;;;;3.17;58.61;93002.92;1739993;81;20946;-53
2021/12/24 07:32:23;;;;;;;35.63;24.43;;;;;;;3.24;58.56;93016.27;1743267;81;21517;-57
2021/12/24 07:34:50;;;;;;;12.90;11.57;;;;;;;3.29;58.63;93016.47;1740540;81;20974;-56
2021/12/24 07:37:17;;;;;;;9.88;8.50;;;;;;;3.35;57.83;93001.10;1736932;81;21571;-53
2021/12/24 07:39:45;;;;;;;12.37;10.90;;;;;;;3.38;57.31;93036.16;1727124;82;21148;-56
2021/12/24 07:42:12;;;;;;;16.35;13.22;;;;;;;3.37;57.78;93005.48;1725248;81;21067;-53
2021/12/24 07:44:42;;;;;;;10.45;9.38;;;;;;;3.38;57.72;93002.93;1706374;82;21025;-56
2021/12/24 07:47:16;;;;;;;10.63;9.53;;;;;;;3.46;57.10;93004.78;1727271;82;22228;-53
2021/12/24 07:49:41;;;;;;;9.20;8.30;;;;;;;3.55;57.02;93010.42;1725388;82;21018;-52
2021/12/24 07:52:09;;;;;;;9.48;8.58;;;;;;;3.59;56.86;93008.35;1700432;82;21183;-55
2021/12/24 07:54:39;;;;;;;8.58;7.75;;;;;;;3.60;56.78;92991.42;1731035;82;21491;-53
2021/12/24 07:57:09;;;;;;;12.93;10.18;;;;;;;3.58;56.68;92999.27;1737313;81;21118;-52
2021/12/24 07:59:39;;;;;;;9.00;8.10;;;;;;;3.55;56.74;92999.55;1728667;81;21124;-51
2021/12/24 08:02:14;;;;;;;11.97;9.03;;;;;;;3.56;57.04;92987.50;1728803;81;21018;-53
2021/12/24 08:04:41;;;;;;;16.60;9.33;;;;;;;3.64;57.10;92989.33;1732073;81;21253;-53
2021/12/24 08:07:09;;;;;;;13.68;10.60;;;;;;;3.68;56.81;92998.87;1739596;81;21065;-56
2021/12/24 08:09:37;;;;;;;16.93;11.83;;;;;;;3.76;56.70;92992.56;1730983;81;21120;-55
2021/12/24 08:12:09;;;;;;;18.85;14.00;;;;;;;3.82;56.81;92993.48;1735132;81;21072;-53
2021/12/24 08:14:36;;;;;;;16.02;10.72;;;;;;;3.89;56.87;93003.50;1750608;81;27422;-54
2021/12/24 08:17:05;;;;;;;14.63;12.58;;;;;;;4.01;57.00;93004.02;1742989;81;21500;-57
2021/12/24 08:19:33;;;;;;;12.75;10.25;;;;;;;4.13;56.89;93001.03;1698025;82;21037;-54
2021/12/24 08:22:04;;;;;;;10.53;8.78;;;;;;;4.22;56.79;93005.16;1706364;81;20941;-53
2021/12/24 08:24:31;;;;;;;14.43;10.03;;;;;;;4.24;56.50;93002.13;1731281;81;21162;-54
2021/12/24 08:27:01;;;;;;;14.25;11.12;;;;;;;4.24;56.47;92998.66;1695630;81;21120;-56
2021/12/24 08:29:28;;;;;;;9.63;8.45;;;;;;;4.28;56.51;92994.57;1716332;81;21063;-55
2021/12/24 08:31:57;;;;;;;8.20;7.40;;;;;;;4.37;56.24;92991.89;1673908;81;21038;-55
2021/12/24 08:34:26;;;;;;;15.48;10.78;;;;;;;4.49;56.10;92999.19;1729115;81;21087;-52
2021/12/24 08:36:53;;;;;;;9.78;8.30;;;;;;;4.58;55.44;92986.20;1730048;81;21074;-53
2021/12/24 08:39:21;;;;;;;18.25;12.00;;;;;;;4.64;55.08;92991.93;1730884;81;21060;-54
2021/12/24 08:41:52;;;;;;;19.12;12.63;;;;;;;4.70;55.37;92986.06;1740502;81;21521;-54
2021/12/24 08:44:19;;;;;;;21.75;15.18;;;;;;;4.73;55.11;92985.15;1745448;81;21701;-54
2021/12/24 08:46:46;;;;;;;15.28;11.03;;;;;;;4.87;55.35;92984.56;1732122;81;21033;-54
2021/12/24 08:49:14;;;;;;;13.58;9.73;;;;;;;5.08;54.72;92982.30;1737015;81;20986;-54
2021/12/24 08:51:41;;;;;;;11.43;9.65;;;;;;;5.18;54.46;92987.14;1704504;82;21071;-54
2021/12/24 08:54:08;;;;;;;15.50;12.43;;;;;;;5.30;54.24;92975.47;1677909;84;21877;-57
2021/12/24 08:56:39;;;;;;;17.23;12.50;;;;;;;5.40;54.07;92978.94;1701128;82;21062;-58
2021/12/24 08:59:07;;;;;;;17.35;11.97;;;;;;;5.45;54.21;92970.14;1703838;82;21504;-57
2021/12/24 09:01:36;;;;;;;52.73;28.80;;;;;;;5.48;53.49;92962.41;1715348;82;21521;-54
2021/12/24 09:04:05;;;;;;;24.25;16.48;;;;;;;5.48;53.74;92959.68;1672418;84;21116;-59
2021/12/24 09:06:33;;;;;;;27.80;17.27;;;;;;;5.50;53.96;92956.66;1662670;84;21309;-57
2021/12/24 09:09:00;;;;;;;12.15;10.28;;;;;;;5.48;53.21;92943.32;1661274;84;21091;-56
2021/12/24 09:11:27;;;;;;;12.07;9.30;;;;;;;5.36;53.16;92944.24;1653333;85;21090;-57
2021/12/24 09:13:53;;;;;;;11.03;9.70;;;;;;;5.24;53.50;92932.92;1711433;82;21423;-55
2021/12/24 09:16:22;;;;;;;9.63;8.70;;;;;;;5.23;53.85;92933.37;1675963;83;21037;-56
2021/12/24 09:18:56;;;;;;;11.97;10.70;;;;;;;5.23;53.74;92935.50;1669637;84;21182;-55
2021/12/24 09:21:19;;;;;;;12.80;10.60;;;;;;;5.20;53.76;92920.06;1670059;84;21009;-58
2021/12/24 09:23:48;;;;;;;148.22;94.45;;;;;;;5.19;53.78;92913.08;1675004;84;21175;-56
2021/12/24 09:26:14;;;;;;;180.82;128.70;;;;;;;5.27;54.10;92911.56;1674245;84;21028;-58
2021/12/24 09:28:41;;;;;;;75.83;62.10;;;;;;;5.49;54.42;92921.06;1689357;84;21018;-55
2021/12/24 09:31:08;;;;;;;73.60;65.83;;;;;;;5.69;53.16;92911.75;1705287;82;21070;-54
2021/12/24 09:33:38;;;;;;;15.70;14.23;;;;;;;5.75;53.25;92903.70;1706543;82;21143;-55
2021/12/24 09:36:06;;;;;;;30.23;27.37;;;;;;;5.89;52.88;92912.00;1673204;84;21158;-56
2021/12/24 09:38:36;;;;;;;18.87;14.60;;;;;;;5.98;52.96;92900.29;1661961;84;21081;-58
2021/12/24 09:41:02;;;;;;;15.65;12.25;;;;;;;6.05;52.81;92906.17;1658774;85;20993;-52
2021/12/24 09:43:30;;;;;;;25.88;19.92;;;;;;;6.08;52.61;92912.66;1662233;85;21132;-59
2021/12/24 09:45:57;;;;;;;24.98;15.60;;;;;;;6.04;53.24;92893.74;1653067;85;21044;-51
2021/12/24 09:48:24;;;;;;;22.90;14.03;;;;;;;6.08;53.40;92890.82;1676602;85;21003;-51
2021/12/24 09:50:54;;;;;;;20.50;14.45;;;;;;;6.04;53.28;92888.88;1662690;85;21053;-56
2021/12/24 09:53:22;;;;;;;14.13;11.18;;;;;;;6.00;53.56;92889.04;1743121;81;21033;-55
2021/12/24 09:55:49;;;;;;;12.00;9.50;;;;;;;6.04;53.31;92880.69;1722684;81;21951;-56
2021/12/24 09:58:16;;;;;;;9.05;8.05;;;;;;;6.01;53.23;92877.53;1695051;82;21031;-54
2021/12/24 10:00:43;;;;;;;16.48;11.85;;;;;;;6.03;53.63;92866.91;1733432;81;21049;-54
2021/12/24 10:03:09;;;;;;;9.08;8.20;;;;;;;6.07;53.84;92864.16;1696163;81;21054;-58
2021/12/24 10:05:42;;;;;;;8.35;7.47;;;;;;;6.07;53.32;92863.39;1716543;82;21041;-56
2021/12/24 10:08:18;;;;;;;13.78;8.15;;;;;;;6.07;53.65;92856.56;1730577;81;26342;-57
2021/12/24 10:10:47;;;;;;;11.22;8.80;;;;;;;6.04;53.62;92871.14;1713259;81;21010;-55
2021/12/24 10:13:31;;;;;;;22.48;13.45;;;;;;;6.11;52.93;92859.87;1719930;81;20969;-54
2021/12/24 10:16:07;;;;;;;17.65;10.25;;;;;;;6.07;52.96;92860.66;1703287;82;21057;-54
2021/12/24 10:18:43;;;;;;;14.13;11.83;;;;;;;6.04;53.75;92859.63;1732394;81;21014;-54
2021/12/24 10:21:25;;;;;;;12.63;9.83;;;;;;;6.03;53.72;92855.39;1691040;82;22272;-55
2021/12/24 10:24:01;;;;;;;15.00;11.93;;;;;;;6.06;53.71;92866.74;1710059;81;21159;-54
2021/12/24 10:26:34;;;;;;;13.65;9.38;;;;;;;6.02;53.45;92855.84;1726354;81;20990;-55
2021/12/24 10:29:09;;;;;;;14.10;9.98;;;;;;;6.01;52.79;92861.16;1730774;81;21026;-51
2021/12/24 10:31:51;;;;;;;15.78;10.98;;;;;;;5.94;53.10;92859.52;1724717;81;20990;-54
2021/12/24 10:34:28;;;;;;;14.35;11.80;;;;;;;5.85;52.60;92851.98;1716704;81;21619;-55
2021/12/24 10:37:22;;;;;;;21.95;17.42;;;;;;;5.76;52.97;92857.48;1730237;81;21049;-54
2021/12/24 10:39:55;;;;;;;20.40;13.75;;;;;;;5.65;52.87;92838.13;1728092;81;20991;-54
2021/12/24 10:42:29;;;;;;;21.15;14.50;;;;;;;5.57;53.06;92835.59;1729821;81;21057;-56
2021/12/24 10:44:57;;;;;;;12.10;9.78;;;;;;;5.62;53.45;92839.05;1735505;81;21079;-54
2021/12/24 10:47:33;;;;;;;13.10;9.88;;;;;;;5.72;53.61;92831.72;1725940;81;21740;-54
2021/12/24 10:50:15;;;;;;;22.48;15.58;;;;;;;5.87;53.49;92831.22;1737957;81;21239;-54
2021/12/24 10:52:59;;;;;;;38.53;24.27;;;;;;;5.99;52.97;92814.48;1738142;81;21534;-57
2021/12/24 10:55:18;;;;;;;28.05;21.42;;;;;;;6.06;52.77;92812.75;1723884;81;21521;-53
2021/12/24 10:57:48;;;;;;;23.25;17.00;;;;;;;6.06;52.65;92820.94;1735654;81;21533;-55
2021/12/24 11:00:38;;;;;;;25.70;17.60;;;;;;;6.04;52.60;92826.88;1723394;81;21077;-55
2021/12/24 11:03:08;;;;;;;23.27;16.42;;;;;;;6.06;52.79;92818.21;1731568;81;21082;-55
2021/12/24 11:05:42;;;;;;;14.40;11.88;;;;;;;6.14;52.65;92828.94;1728678;81;21053;-53
2021/12/24 11:08:13;;;;;;;17.70;14.78;;;;;;;6.19;52.65;92839.21;1733635;81;21046;-58
2021/12/24 11:10:46;;;;;;;8.75;7.80;;;;;;;6.18;52.94;92837.08;1728505;81;21061;-54
2021/12/24 11:13:19;;;;;;;7.53;6.92;;;;;;;6.10;52.49;92837.89;1722591;81;21140;-55
2021/12/24 11:15:50;;;;;;;8.98;7.65;;;;;;;6.09;52.58;92824.87;1736053;81;21081;-52
2021/12/24 11:18:21;;;;;;;17.17;11.65;;;;;;;6.11;52.80;92824.39;1740769;81;20998;-55
2021/12/24 11:20:55;;;;;;;22.60;15.15;;;;;;;6.17;52.84;92819.81;1730942;81;21042;-57
2021/12/24 11:23:30;;;;;;;17.98;14.13;;;;;;;6.29;52.97;92807.28;1716195;82;21376;-56
2021/12/24 11:26:05;;;;;;;28.57;18.75;;;;;;;6.45;52.70;92804.73;1709383;81;21127;-56
2021/12/24 11:28:33;;;;;;;21.00;12.82;;;;;;;6.58;52.02;92803.87;1741040;81;21028;-54
2021/12/24 11:31:09;;;;;;;14.30;10.98;;;;;;;6.62;51.25;92803.83;1708375;81;21518;-54
2021/12/24 11:33:42;;;;;;;15.95;11.25;;;;;;;6.54;51.34;92804.66;1718196;81;21511;-56
2021/12/24 11:36:12;;;;;;;10.43;8.83;;;;;;;6.49;51.90;92821.71;1729400;81;21057;-51
2021/12/24 11:38:47;;;;;;;12.37;9.98;;;;;;;6.42;51.73;92832.97;1705956;81;21182;-56
2021/12/24 11:41:16;;;;;;;11.40;9.30;;;;;;;6.37;51.93;92830.89;1736156;81;20899;-54
2021/12/24 11:43:46;;;;;;;12.13;10.10;;;;;;;6.35;51.84;92831.98;1729740;81;21541;-53
2021/12/24 11:46:25;;;;;;;9.73;8.43;;;;;;;6.29;52.23;92820.17;1729701;81;21093;-53
2021/12/24 11:48:52;;;;;;;8.85;7.90;;;;;;;6.26;52.36;92836.13;1738067;81;21065;-54
2021/12/24 11:51:25;;;;;;;10.50;7.62;;;;;;;6.18;52.63;92817.23;1701314;82;21821;-54
2021/12/24 11:53:56;;;;;;;6.03;5.42;;;;;;;6.15;53.00;92826.36;1741359;81;21511;-53
2021/12/24 11:56:24;;;;;;;7.22;6.53;;;;;;;6.15;52.52;92839.38;1728279;81;21067;-54
2021/12/24 11:58:54;;;;;;;18.90;17.12;;;;;;;6.13;52.84;92815.15;1740052;81;21882;-54
2021/12/24 12:01:23;;;;;;;8.23;7.50;;;;;;;6.11;52.86;92819.70;1705801;81;22081;-59
2021/12/24 12:03:52;;;;;;;7.58;6.87;;;;;;;6.07;52.82;92829.27;1718666;81;21134;-56
2021/12/24 12:06:28;;;;;;;11.78;7.92;;;;;;;6.03;53.04;92847.80;1707456;81;21015;-57
2021/12/24 12:09:00;;;;;;;14.80;10.05;;;;;;;6.00;53.42;92835.09;1710845;81;21001;-54
2021/12/24 12:11:31;;;;;;;14.58;11.18;;;;;;;6.00;53.47;92839.92;1715765;81;20996;-56
2021/12/24 12:14:09;;;;;;;17.48;13.00;;;;;;;5.95;53.81;92815.27;1735668;81;21017;-53
2021/12/24 12:16:53;;;;;;;20.82;14.10;;;;;;;6.00;53.96;92810.53;1730445;81;21559;-54
2021/12/24 12:19:45;;;;;;;;;;;;;;;;;;;;;
2021/12/24 12:25:01;;;;;;;75.03;51.53;;;;;;;6.11;53.61;92827.12;1731363;81;21035;-53
2021/12/24 12:27:43;;;;;;;452.23;321.45;;;;;;;6.14;53.80;92821.48;1732740;81;21002;-54
2021/12/24 12:30:31;;;;;;;402.55;280.67;;;;;;;6.16;53.93;92807.39;1725440;81;21493;-55
2021/12/24 12:33:20;;;;;;;75.80;59.10;;;;;;;6.18;53.76;92821.33;1738408;81;22195;-56
2021/12/24 12:36:02;;;;;;;105.52;94.35;;;;;;;6.16;53.61;92808.75;1720299;81;21754;-55
2021/12/24 12:38:43;;;;;;;30.82;28.02;;;;;;;6.14;53.60;92828.31;1713322;82;20990;-55
2021/12/24 12:41:39;;;;;;;15.20;11.68;;;;;;;6.14;53.73;92822.12;1741244;81;21056;-57
2021/12/24 12:44:07;;;;;;;15.72;10.90;;;;;;;6.10;53.89;92821.52;1728225;81;21246;-55
2021/12/24 12:46:41;;;;;;;;;;;;;;;6.05;54.08;92825.66;1720817;82;20997;-52
2021/12/24 12:49:15;;;;;;;11.00;8.83;;;;;;;6.07;54.40;92837.45;1716391;81;20237;-56
2021/12/24 12:52:01;;;;;;;14.23;9.35;;;;;;;6.12;54.46;92830.02;1729107;81;21275;-52
2021/12/24 12:54:42;;;;;;;14.60;11.45;;;;;;;6.13;54.60;92841.08;1728681;81;21062;-54
2021/12/24 12:57:32;;;;;;;11.18;10.08;;;;;;;6.19;54.78;92843.30;1731387;81;21237;-54
2021/12/24 13:00:20;;;;;;;12.35;9.10;;;;;;;6.20;54.66;92847.55;1681509;84;21108;-54
2021/12/24 13:05:46;;;;;;;21.25;14.15;;;;;;;6.07;55.33;92859.29;1725416;81;21037;-55
2021/12/24 13:08:22;;;;;;;9.48;8.18;;;;;;;6.12;55.63;92873.69;1729281;81;21534;-54
2021/12/24 13:11:13;;;;;;;8.23;6.95;;;;;;;6.16;55.65;92870.17;1730783;81;21791;-53
2021/12/24 13:13:56;;;;;;;6.22;5.62;;;;;;;6.16;55.98;92871.53;1719716;82;21058;-54
2021/12/24 13:16:47;;;;;;;7.10;6.22;;;;;;;6.17;56.04;92870.31;1735048;81;21189;-54
2021/12/24 13:24:59;;;;;;;13.75;10.58;;;;;;;6.26;56.06;92881.94;1731672;81;21839;-54
2021/12/24 13:27:33;;;;;;;10.05;8.88;;;;;;;6.27;56.37;92861.60;1713029;82;21051;-57
2021/12/24 13:30:19;;;;;;;19.25;13.03;;;;;;;6.31;56.39;92880.55;1730600;81;22265;-56
2021/12/24 13:32:55;;;;;;;13.80;9.50;;;;;;;6.32;56.63;92879.33;1730128;81;21020;-55